Time;durP1;ratioP1;P1;durP2;ratioP2;P2;SDS_P1;SDS_P2;PMS_P1;PMS_P2;Temp;Humidity;BMP_temperature;BMP_pressure;BME280_temperature;BME280_humidity;BME280_pressure;Samples;Min_cycle;Max_cycle;Signal;HPM_P1;HPM_P2
2023/08/06 00:00:40;;;;;;;10.05;4.53;;;;;;;11.48;100.00;92421.81;2106484;28;20074;-81
2023/08/06 00:01:41;;;;;;;7.13;3.58;;;;;;;11.45;100.00;92417.31;2097617;28;20146;-81
2023/08/06 00:02:42;;;;;;;10.23;3.85;;;;;;;11.37;100.00;92416.84;2098093;28;20123;-81
2023/08/06 00:03:43;;;;;;;11.00;3.60;;;;;;;11.33;100.00;92416.22;2102939;28;20059;-81
2023/08/06 00:04:44;;;;;;;10.05;3.80;;;;;;;11.38;100.00;92412.97;2094038;28;20060;-81
2023/08/06 00:05:44;;;;;;;12.55;4.22;;;;;;;11.37;100.00;92406.16;2097972;28;20036;-81
2023/08/06 00:06:45;;;;;;;11.50;3.58;;;;;;;11.34;100.00;92412.34;2111392;28;20027;-81
2023/08/06 00:07:47;;;;;;;7.82;3.67;;;;;;;11.40;100.00;92407.94;2106510;28;20028;-81
2023/08/06 00:08:48;;;;;;;12.13;3.75;;;;;;;11.41;100.00;92417.44;2106212;28;20023;-82
2023/08/06 00:09:49;;;;;;;13.68;3.88;;;;;;;11.35;100.00;92417.25;2097976;28;20035;-81
2023/08/06 00:10:50;;;;;;;8.10;3.30;;;;;;;11.60;100.00;92402.25;2095371;28;20035;-81
2023/08/06 00:11:51;;;;;;;9.02;3.65;;;;;;;11.58;100.00;92408.00;2097364;28;20492;-81
2023/08/06 00:12:52;;;;;;;8.57;3.95;;;;;;;11.68;100.00;92400.06;2109023;28;20525;-81
2023/08/06 00:13:53;;;;;;;8.13;4.15;;;;;;;11.61;100.00;92401.06;2097191;28;20016;-82
2023/08/06 00:14:54;;;;;;;8.63;4.15;;;;;;;11.64;100.00;92408.22;2098505;28;20089;-81
2023/08/06 00:15:55;;;;;;;9.25;3.72;;;;;;;11.57;100.00;92403.84;2107365;28;20457;-81
2023/08/06 00:16:56;;;;;;;5.03;3.03;;;;;;;11.66;100.00;92397.06;2105623;28;20008;-81
2023/08/06 00:17:57;;;;;;;8.00;3.70;;;;;;;11.65;100.00;92400.91;2112490;28;20112;-81
2023/08/06 00:18:58;;;;;;;13.35;3.60;;;;;;;11.84;100.00;92400.56;2120952;28;20034;-82
2023/08/06 00:20:04;;;;;;;7.10;3.50;;;;;;;11.78;100.00;92404.25;2110397;28;20050;-81
2023/08/06 00:21:05;;;;;;;7.63;3.65;;;;;;;11.79;100.00;92409.16;2116012;28;20337;-81
2023/08/06 00:22:06;;;;;;;6.18;3.78;;;;;;;11.64;100.00;92410.16;2114784;28;20051;-81
2023/08/06 00:23:08;;;;;;;8.25;3.63;;;;;;;11.69;100.00;92401.53;2106680;28;20013;-83
2023/08/06 00:24:09;;;;;;;9.50;4.15;;;;;;;11.68;100.00;92405.41;2108477;28;20020;-82
2023/08/06 00:25:10;;;;;;;6.63;4.03;;;;;;;11.67;100.00;92401.22;2118117;28;20016;-82
2023/08/06 00:26:11;;;;;;;8.48;3.97;;;;;;;11.63;100.00;92403.28;2113263;28;20023;-81
2023/08/06 00:27:12;;;;;;;7.07;3.50;;;;;;;11.68;100.00;92395.44;2109858;28;20067;-81
2023/08/06 00:28:13;;;;;;;8.80;4.40;;;;;;;11.76;100.00;92403.94;2125886;27;20018;-80
2023/08/06 00:29:14;;;;;;;11.23;3.92;;;;;;;11.65;100.00;92406.28;2114810;28;20117;-81
2023/08/06 00:30:15;;;;;;;6.57;3.50;;;;;;;11.68;100.00;92408.81;2114290;28;20073;-81
2023/08/06 00:31:16;;;;;;;8.00;3.58;;;;;;;11.63;100.00;92408.63;2108128;28;20016;-81
2023/08/06 00:32:17;;;;;;;12.18;4.05;;;;;;;11.68;100.00;92406.16;2100567;28;20024;-81
2023/08/06 00:33:18;;;;;;;8.45;3.58;;;;;;;11.64;100.00;92402.13;2089846;28;20029;-81
2023/08/06 00:34:19;;;;;;;7.25;3.92;;;;;;;11.75;100.00;92389.06;2097717;28;20040;-81
2023/08/06 00:35:20;;;;;;;9.13;3.70;;;;;;;11.72;100.00;92390.69;2092095;28;20111;-81
2023/08/06 00:36:21;;;;;;;8.20;3.92;;;;;;;11.86;100.00;92392.13;2106170;28;20056;-81
2023/08/06 00:37:22;;;;;;;9.00;4.00;;;;;;;11.87;100.00;92388.25;2106158;28;20507;-81
2023/08/06 00:38:23;;;;;;;11.70;3.80;;;;;;;11.71;100.00;92391.13;2095592;28;20078;-80
2023/08/06 00:39:24;;;;;;;8.27;3.95;;;;;;;11.71;100.00;92396.47;2096224;28;20103;-80
2023/08/06 00:40:25;;;;;;;6.97;3.88;;;;;;;11.57;100.00;92390.47;2106038;28;20488;-81
2023/08/06 00:41:35;;;;;;;9.52;4.50;;;;;;;11.57;100.00;92387.78;2114508;28;20028;-81
2023/08/06 00:42:36;;;;;;;11.13;3.58;;;;;;;11.64;100.00;92388.72;2090515;28;20489;-81
2023/08/06 00:43:37;;;;;;;7.88;3.65;;;;;;;11.60;100.00;92383.50;2089545;28;20031;-81
2023/08/06 00:44:39;;;;;;;9.40;4.00;;;;;;;11.67;100.00;92387.84;2106533;28;20031;-81
2023/08/06 00:45:39;;;;;;;8.02;3.63;;;;;;;11.68;100.00;92384.00;2114297;28;20138;-81
2023/08/06 00:46:41;;;;;;;7.88;3.70;;;;;;;11.68;100.00;92387.41;2113128;28;20446;-81
2023/08/06 00:47:42;;;;;;;6.50;3.45;;;;;;;11.76;100.00;92393.22;2095143;28;20032;-81
2023/08/06 00:48:43;;;;;;;8.98;3.88;;;;;;;11.99;100.00;92390.06;2097396;28;20024;-81
2023/08/06 00:49:44;;;;;;;7.05;3.75;;;;;;;11.87;100.00;92387.50;2097093;28;20058;-81
2023/08/06 00:50:45;;;;;;;7.90;3.80;;;;;;;11.73;100.00;92392.19;2085839;28;20116;-81
2023/08/06 00:51:47;;;;;;;9.55;4.22;;;;;;;11.60;100.00;92386.19;2090936;28;20020;-81
2023/08/06 00:52:51;;;;;;;6.85;3.55;;;;;;;11.64;100.00;92394.09;2111886;27;20499;-81
2023/08/06 00:53:53;;;;;;;6.57;3.40;;;;;;;11.73;100.00;92386.84;2111631;28;20331;-81
2023/08/06 00:54:54;;;;;;;5.78;3.20;;;;;;;11.80;100.00;92388.47;2097738;28;20466;-81
2023/08/06 00:55:55;;;;;;;8.68;2.90;;;;;;;11.70;100.00;92384.28;2103152;28;20028;-81
2023/08/06 00:56:58;;;;;;;10.75;3.40;;;;;;;11.53;100.00;92384.50;2105938;28;20030;-81
2023/08/06 00:58:00;;;;;;;6.30;2.70;;;;;;;11.50;100.00;92380.03;2096462;28;20081;-81
2023/08/06 00:59:01;;;;;;;5.00;2.90;;;;;;;11.54;100.00;92375.28;2105673;28;20032;-81
2023/08/06 01:00:04;;;;;;;5.57;2.97;;;;;;;11.48;100.00;92368.28;2097689;28;20487;-81
2023/08/06 01:01:05;;;;;;;4.47;2.90;;;;;;;11.42;100.00;92368.09;2100657;28;20028;-81
2023/08/06 01:02:06;;;;;;;4.97;2.60;;;;;;;11.47;100.00;92372.16;2104980;28;20469;-81
2023/08/06 01:03:08;;;;;;;14.32;3.13;;;;;;;11.41;100.00;92371.22;2105835;28;20382;-81
2023/08/06 01:04:10;;;;;;;4.43;2.22;;;;;;;11.68;100.00;92375.97;2103892;28;20498;-81
2023/08/06 01:05:11;;;;;;;5.65;2.60;;;;;;;11.68;100.00;92370.59;2093450;28;20651;-81
2023/08/06 01:06:12;;;;;;;6.20;2.30;;;;;;;11.68;100.00;92367.94;2088008;28;20078;-81
2023/08/06 01:07:33;;;;;;;7.07;2.33;;;;;;;11.40;100.00;92359.75;2089256;28;20029;-81
2023/08/06 01:08:58;;;;;;;7.72;2.75;;;;;;;11.48;100.00;92361.00;2099777;28;20059;-81
2023/08/06 01:10:18;;;;;;;3.88;2.17;;;;;;;11.73;100.00;92367.34;2104385;28;20452;-81
2023/08/06 01:11:42;;;;;;;3.10;2.00;;;;;;;11.59;100.00;92358.66;2110890;27;20292;-81
2023/08/06 01:12:58;;;;;;;7.63;2.30;;;;;;;11.47;100.00;92356.09;2108797;28;20461;-81
2023/08/06 01:14:09;;;;;;;9.77;2.53;;;;;;;11.48;100.00;92355.63;2107517;28;20039;-81
2023/08/06 01:15:10;;;;;;;4.38;1.98;;;;;;;11.52;100.00;92353.56;2114417;28;20023;-81
2023/08/06 01:16:11;;;;;;;3.78;2.00;;;;;;;11.39;100.00;92355.59;2113676;28;20081;-81
2023/08/06 01:17:12;;;;;;;6.65;2.15;;;;;;;11.58;100.00;92353.75;2097147;28;20025;-81
2023/08/06 01:18:13;;;;;;;7.88;2.10;;;;;;;11.70;100.00;92354.84;2096378;28;20410;-81
2023/08/06 01:19:18;;;;;;;4.65;2.58;;;;;;;11.74;100.00;92353.50;2100367;28;20024;-81
2023/08/06 01:20:19;;;;;;;5.07;2.10;;;;;;;11.68;100.00;92349.94;2098081;28;20024;-81
2023/08/06 01:21:20;;;;;;;5.13;2.35;;;;;;;11.70;100.00;92347.53;2096874;28;20024;-81
2023/08/06 01:22:24;;;;;;;5.88;2.50;;;;;;;11.84;100.00;92351.63;2104889;28;20055;-81
2023/08/06 01:23:25;;;;;;;7.75;2.45;;;;;;;11.65;100.00;92347.38;2109863;28;20061;-81
2023/08/06 01:24:26;;;;;;;5.97;2.47;;;;;;;11.50;100.00;92347.94;2110330;28;20035;-80
2023/08/06 01:25:35;;;;;;;6.75;2.28;;;;;;;11.90;100.00;92336.50;2111159;28;20330;-81
2023/08/06 01:26:43;;;;;;;4.95;2.47;;;;;;;11.76;100.00;92345.78;2106858;28;20039;-81
2023/08/06 01:27:48;;;;;;;9.73;3.38;;;;;;;11.87;100.00;92333.94;2105311;28;20372;-80
2023/08/06 01:29:25;;;;;;;5.18;2.30;;;;;;;11.58;100.00;92326.97;2097907;28;20040;-81
2023/08/06 01:30:30;;;;;;;7.50;2.40;;;;;;;11.68;100.00;92331.19;2102491;28;20039;-81
2023/08/06 01:31:35;;;;;;;6.63;2.67;;;;;;;11.71;100.00;92335.66;2097142;28;20021;-80
2023/08/06 01:32:42;;;;;;;5.40;2.25;;;;;;;11.64;100.00;92333.25;2089842;28;20470;-81
2023/08/06 01:33:47;;;;;;;7.35;2.70;;;;;;;11.72;100.00;92336.38;2105892;28;20062;-81
2023/08/06 01:34:49;;;;;;;5.40;2.53;;;;;;;11.72;100.00;92331.03;2103803;28;20081;-80
2023/08/06 01:35:52;;;;;;;12.63;3.08;;;;;;;11.66;100.00;92327.44;2091334;28;20035;-81
2023/08/06 01:36:53;;;;;;;8.48;3.47;;;;;;;11.69;100.00;92323.91;2106309;28;20024;-81
2023/08/06 01:37:56;;;;;;;6.65;2.60;;;;;;;11.81;100.00;92331.09;2096927;28;20464;-81
2023/08/06 01:38:59;;;;;;;12.20;2.67;;;;;;;11.74;100.00;92331.34;2089141;28;20036;-81
2023/08/06 01:40:00;;;;;;;5.70;2.58;;;;;;;11.69;100.00;92329.25;2089551;28;20032;-81
2023/08/06 01:41:01;;;;;;;4.95;2.50;;;;;;;11.61;100.00;92323.41;2092390;28;20373;-81
2023/08/06 01:42:03;;;;;;;6.53;2.25;;;;;;;11.51;100.00;92328.00;2102464;28;20071;-82
2023/08/06 01:43:04;;;;;;;6.40;2.10;;;;;;;11.59;100.00;92326.56;2105108;28;20032;-81
2023/08/06 01:44:06;;;;;;;3.15;2.40;;;;;;;11.49;100.00;92327.69;2097199;28;20021;-81
2023/08/06 01:45:08;;;;;;;6.93;2.65;;;;;;;11.57;100.00;92328.91;2097818;28;20079;-80
2023/08/06 01:46:09;;;;;;;9.40;3.05;;;;;;;11.53;100.00;92330.97;2097168;28;20035;-81
2023/08/06 01:47:10;;;;;;;7.30;2.95;;;;;;;11.50;100.00;92326.53;2103352;28;20145;-81
2023/08/06 01:48:11;;;;;;;5.88;2.50;;;;;;;11.50;100.00;92320.41;2105389;28;20094;-80
2023/08/06 01:49:12;;;;;;;7.32;2.92;;;;;;;11.52;100.00;92324.13;2096556;28;20028;-82
2023/08/06 01:50:13;;;;;;;6.32;2.65;;;;;;;11.52;100.00;92324.13;2083820;28;20028;-81
2023/08/06 01:51:14;;;;;;;5.25;2.35;;;;;;;11.51;100.00;92322.66;2102103;28;20028;-81
2023/08/06 01:52:14;;;;;;;4.05;2.38;;;;;;;11.67;100.00;92321.66;2114052;28;20034;-82
2023/08/06 01:53:15;;;;;;;7.95;3.03;;;;;;;11.69;100.00;92323.91;2111596;28;20046;-82
2023/08/06 01:54:17;;;;;;;5.82;3.03;;;;;;;11.60;100.00;92319.25;2099522;28;20021;-81
2023/08/06 01:55:18;;;;;;;9.18;2.92;;;;;;;11.64;100.00;92311.84;2114061;28;20032;-81
2023/08/06 01:56:19;;;;;;;5.85;2.53;;;;;;;11.60;100.00;92314.66;2113519;28;20023;-81
2023/08/06 01:57:20;;;;;;;8.90;2.92;;;;;;;11.64;100.00;92319.13;2090944;28;20021;-82
2023/08/06 01:58:21;;;;;;;5.38;2.53;;;;;;;11.74;100.00;92317.97;2089185;28;20025;-81
2023/08/06 01:59:22;;;;;;;6.75;3.38;;;;;;;11.67;100.00;92313.63;2088211;28;20028;-81
2023/08/06 02:00:23;;;;;;;4.50;3.28;;;;;;;11.78;100.00;92313.22;2103057;28;20020;-81
2023/08/06 02:01:24;;;;;;;6.38;2.53;;;;;;;11.86;100.00;92311.03;2103540;28;20023;-81
2023/08/06 02:02:25;;;;;;;7.03;2.80;;;;;;;11.93;100.00;92306.13;2096644;28;20410;-82
2023/08/06 02:03:26;;;;;;;7.63;2.70;;;;;;;12.00;100.00;92305.09;2088980;28;20524;-82
2023/08/06 02:04:27;;;;;;;8.48;2.70;;;;;;;12.01;100.00;92301.97;2095159;28;20031;-81
2023/08/06 02:05:28;;;;;;;8.38;2.95;;;;;;;11.89;100.00;92308.19;2080856;28;20017;-81
2023/08/06 02:06:30;;;;;;;4.38;2.63;;;;;;;12.06;100.00;92295.28;2086878;28;20025;-81
2023/08/06 02:07:31;;;;;;;4.88;2.28;;;;;;;12.05;100.00;92304.53;2096478;28;20140;-81
2023/08/06 02:08:32;;;;;;;5.90;2.53;;;;;;;12.39;100.00;92305.44;2097179;28;20040;-81
2023/08/06 02:09:35;;;;;;;7.30;3.03;;;;;;;12.09;100.00;92303.19;2101880;28;20020;-81
2023/08/06 02:10:36;;;;;;;8.88;2.75;;;;;;;12.11;100.00;92302.72;2113857;28;20407;-82
2023/08/06 02:11:37;;;;;;;5.40;2.30;;;;;;;12.08;100.00;92296.34;2104810;28;20042;-81
2023/08/06 02:12:38;;;;;;;9.05;2.75;;;;;;;12.05;100.00;92299.91;2096665;28;20024;-81
2023/08/06 02:13:39;;;;;;;7.93;2.70;;;;;;;12.03;100.00;92294.25;2088970;28;20056;-81
2023/08/06 02:14:40;;;;;;;10.82;2.53;;;;;;;12.01;100.00;92301.22;2100996;28;20024;-81
2023/08/06 02:15:43;;;;;;;7.40;3.15;;;;;;;12.09;100.00;92297.81;2105389;28;20024;-82
2023/08/06 02:16:44;;;;;;;8.10;2.70;;;;;;;11.93;100.00;92295.41;2096818;28;20024;-80
2023/08/06 02:17:45;;;;;;;8.75;2.63;;;;;;;11.91;100.00;92291.69;2100853;28;20028;-81
2023/08/06 02:18:46;;;;;;;11.10;2.55;;;;;;;12.15;100.00;92299.91;2106931;28;20039;-81
2023/08/06 02:19:47;;;;;;;7.78;2.50;;;;;;;12.09;100.00;92302.44;2113439;28;20359;-81
2023/08/06 02:22:23;;;;;;;;;;;;;;;11.90;100.00;92296.31;2145703;27;20216;-80
2023/08/06 02:23:24;;;;;;;13.48;3.05;;;;;;;11.89;100.00;92300.16;2129372;27;19911;-82
2023/08/06 02:24:26;;;;;;;6.65;2.58;;;;;;;12.14;100.00;92299.16;2121357;27;20023;-82
2023/08/06 02:25:27;;;;;;;9.32;2.40;;;;;;;12.24;100.00;92302.59;2112328;28;20028;-82
2023/08/06 02:26:28;;;;;;;7.35;2.65;;;;;;;12.21;100.00;92300.81;2103746;28;20084;-82
2023/08/06 02:27:29;;;;;;;5.75;2.40;;;;;;;12.25;100.00;92302.16;2113003;28;20031;-82
2023/08/06 02:28:31;;;;;;;9.18;2.70;;;;;;;12.13;100.00;92295.00;2112488;28;20062;-82
2023/08/06 02:29:32;;;;;;;9.65;2.40;;;;;;;12.02;100.00;92300.03;2104842;28;20020;-82
2023/08/06 02:30:33;;;;;;;6.57;2.10;;;;;;;12.08;100.00;92293.66;2120552;28;20035;-82
2023/08/06 02:31:34;;;;;;;5.13;2.30;;;;;;;11.98;100.00;92297.50;2120455;28;20232;-82
2023/08/06 02:32:35;;;;;;;10.52;2.40;;;;;;;11.96;100.00;92285.75;2121129;28;20020;-81
2023/08/06 02:33:36;;;;;;;7.63;2.50;;;;;;;11.91;100.00;92287.09;2117311;27;20031;-82
2023/08/06 02:34:37;;;;;;;6.10;2.40;;;;;;;11.82;100.00;92293.16;2121281;28;20019;-81
2023/08/06 02:35:38;;;;;;;5.25;2.20;;;;;;;11.86;100.00;92289.63;2111898;28;20028;-81
2023/08/06 02:36:39;;;;;;;10.38;2.33;;;;;;;12.03;100.00;92298.88;2112192;27;20466;-82
2023/08/06 02:37:41;;;;;;;8.45;2.30;;;;;;;11.91;100.00;92289.03;2108340;28;20039;-81
2023/08/06 02:38:42;;;;;;;9.80;2.30;;;;;;;11.86;100.00;92292.28;2113107;28;20078;-82
2023/08/06 02:39:43;;;;;;;11.18;2.83;;;;;;;11.92;100.00;92299.28;2114868;27;20749;-81
2023/08/06 02:40:46;;;;;;;10.63;2.78;;;;;;;12.04;100.00;92282.34;2121081;27;20055;-81
2023/08/06 02:41:48;;;;;;;12.63;2.90;;;;;;;11.96;100.00;92288.44;2111753;28;20090;-81
2023/08/06 02:42:49;;;;;;;9.93;2.50;;;;;;;11.95;100.00;92289.63;2112616;28;20019;-81
2023/08/06 02:43:50;;;;;;;8.77;2.30;;;;;;;11.87;100.00;92289.16;2103100;28;20024;-81
2023/08/06 02:44:51;;;;;;;9.32;2.50;;;;;;;11.89;100.00;92289.44;2112690;28;20514;-81
2023/08/06 02:45:56;;;;;;;13.60;2.47;;;;;;;11.82;100.00;92289.72;2103714;28;20119;-81
2023/08/06 02:46:57;;;;;;;7.68;2.20;;;;;;;11.74;100.00;92277.81;2121054;27;20487;-81
2023/08/06 02:47:58;;;;;;;5.80;2.28;;;;;;;11.79;100.00;92280.63;2121248;28;20027;-81
2023/08/06 02:48:59;;;;;;;8.50;3.17;;;;;;;11.90;100.00;92277.56;2120524;27;20062;-80
2023/08/06 02:50:00;;;;;;;7.60;2.80;;;;;;;11.80;100.00;92281.38;2111858;28;20035;-81
2023/08/06 02:51:01;;;;;;;10.43;2.28;;;;;;;11.83;100.00;92275.16;2095326;28;20048;-80
2023/08/06 02:52:02;;;;;;;10.02;2.92;;;;;;;11.71;100.00;92271.38;2106584;27;20024;-81
2023/08/06 02:53:03;;;;;;;8.57;2.33;;;;;;;11.67;100.00;92275.41;2120933;28;20205;-80
2023/08/06 02:54:04;;;;;;;9.18;2.17;;;;;;;11.79;100.00;92277.22;2109118;28;20494;-81
2023/08/06 02:55:14;;;;;;;8.07;2.20;;;;;;;11.73;100.00;92270.97;2121174;28;20441;-81
2023/08/06 02:56:15;;;;;;;12.27;2.50;;;;;;;11.81;100.00;92270.25;2105545;28;20032;-81
2023/08/06 02:57:16;;;;;;;9.73;2.40;;;;;;;11.83;100.00;92265.19;2111816;28;20020;-81
2023/08/06 02:58:21;;;;;;;7.95;2.90;;;;;;;11.85;100.00;92267.44;2112509;28;20472;-81
2023/08/06 02:59:22;;;;;;;10.63;2.40;;;;;;;11.76;100.00;92272.75;2096090;28;20201;-81
2023/08/06 03:00:23;;;;;;;10.88;2.20;;;;;;;11.86;100.00;92268.94;2099459;28;20024;-81
2023/08/06 03:01:29;;;;;;;10.32;2.40;;;;;;;11.80;100.00;92276.75;2112358;28;20024;-81
2023/08/06 03:02:30;;;;;;;11.20;3.00;;;;;;;11.85;100.00;92272.78;2111930;28;20087;-80
2023/08/06 03:03:31;;;;;;;10.25;2.53;;;;;;;11.62;100.00;92273.31;2107206;28;20020;-81
2023/08/06 03:04:32;;;;;;;8.93;2.33;;;;;;;11.74;100.00;92278.53;2104003;28;20398;-81
2023/08/06 03:05:33;;;;;;;5.80;2.13;;;;;;;11.64;100.00;92285.06;2097995;28;20052;-81
2023/08/06 03:06:34;;;;;;;10.05;2.13;;;;;;;11.59;100.00;92286.41;2095723;28;20025;-81
2023/08/06 03:07:37;;;;;;;7.40;1.95;;;;;;;11.60;100.00;92274.50;2100119;28;20028;-81
2023/08/06 03:08:38;;;;;;;5.63;1.50;;;;;;;11.59;100.00;92283.72;2112917;28;20050;-81
2023/08/06 03:09:39;;;;;;;6.50;1.92;;;;;;;11.66;100.00;92287.31;2120623;28;20019;-81
2023/08/06 03:10:40;;;;;;;6.50;2.00;;;;;;;11.83;100.00;92293.91;2120534;28;20054;-81
2023/08/06 03:11:41;;;;;;;7.10;1.80;;;;;;;11.78;100.00;92289.13;2108909;28;20058;-81
2023/08/06 03:12:42;;;;;;;11.73;2.45;;;;;;;11.68;100.00;92299.06;2107433;28;20177;-81
2023/08/06 03:13:43;;;;;;;8.75;1.90;;;;;;;11.83;100.00;92299.28;2120995;28;20036;-81
2023/08/06 03:14:44;;;;;;;8.25;1.80;;;;;;;11.79;100.00;92304.72;2111739;28;20542;-81
2023/08/06 03:15:55;;;;;;;6.40;1.73;;;;;;;11.94;100.00;92307.63;2103316;28;20148;-81
2023/08/06 03:16:56;;;;;;;4.47;1.05;;;;;;;11.93;100.00;92300.03;2115017;27;20384;-81
2023/08/06 03:17:57;;;;;;;3.35;0.93;;;;;;;11.81;100.00;92306.97;2111512;28;20043;-81
2023/08/06 03:18:58;;;;;;;3.28;1.15;;;;;;;11.64;100.00;92306.50;2103477;28;20123;-81
2023/08/06 03:19:59;;;;;;;3.92;0.80;;;;;;;11.50;100.00;92304.34;2120035;28;20027;-81
2023/08/06 03:21:00;;;;;;;3.08;0.80;;;;;;;11.55;100.00;92301.84;2120147;28;20388;-81
2023/08/06 03:22:01;;;;;;;3.40;1.00;;;;;;;11.52;100.00;92301.97;2120182;27;20047;-81
2023/08/06 03:23:04;;;;;;;6.05;0.70;;;;;;;11.58;100.00;92311.66;2111706;28;20023;-81
2023/08/06 03:24:05;;;;;;;1.63;0.50;;;;;;;11.27;100.00;92311.69;2111734;28;20510;-81
2023/08/06 03:25:06;;;;;;;2.95;0.52;;;;;;;11.20;100.00;92303.94;2107905;28;20025;-81
2023/08/06 03:26:07;;;;;;;3.03;0.65;;;;;;;11.38;100.00;92310.56;2103515;28;20425;-81
2023/08/06 03:27:08;;;;;;;1.90;0.52;;;;;;;11.21;100.00;92302.75;2104042;28;20388;-81
2023/08/06 03:28:09;;;;;;;1.15;0.50;;;;;;;11.09;100.00;92296.31;2120178;28;20016;-82
2023/08/06 03:29:10;;;;;;;2.45;0.50;;;;;;;11.23;100.00;92331.72;2111831;28;20503;-81
2023/08/06 03:30:11;;;;;;;4.30;0.60;;;;;;;11.10;100.00;92297.78;2112334;28;20024;-79
2023/08/06 03:31:12;;;;;;;2.47;0.60;;;;;;;11.09;100.00;92298.22;2103578;28;20024;-81
2023/08/06 03:32:13;;;;;;;11.80;1.73;;;;;;;11.07;100.00;92296.00;2103949;28;20044;-81
2023/08/06 03:33:14;;;;;;;3.25;0.50;;;;;;;11.15;100.00;92298.41;2100589;28;20021;-80
2023/08/06 03:34:15;;;;;;;1.05;0.60;;;;;;;10.94;100.00;92295.34;2101900;28;20067;-81
2023/08/06 03:35:16;;;;;;;2.65;0.55;;;;;;;11.12;100.00;92301.97;2104117;28;20026;-81
2023/08/06 03:36:17;;;;;;;2.70;0.68;;;;;;;11.01;100.00;92291.66;2113887;28;20060;-81
2023/08/06 03:37:18;;;;;;;2.70;0.63;;;;;;;10.91;100.00;92293.53;2106705;28;20024;-81
2023/08/06 03:38:20;;;;;;;1.75;0.70;;;;;;;11.05;100.00;92292.28;2097806;28;20029;-81
2023/08/06 03:39:21;;;;;;;2.50;0.50;;;;;;;10.91;100.00;92296.22;2098053;28;20024;-81
2023/08/06 03:40:22;;;;;;;4.60;0.60;;;;;;;10.71;100.00;92293.13;2105737;28;20457;-81
2023/08/06 03:41:23;;;;;;;2.63;0.52;;;;;;;10.73;100.00;92294.19;2105958;28;20016;-80
2023/08/06 03:42:24;;;;;;;2.78;0.90;;;;;;;10.76;100.00;92295.25;2106747;28;20381;-81
2023/08/06 03:43:25;;;;;;;11.75;0.77;;;;;;;10.70;100.00;92288.94;2097714;28;20031;-81
2023/08/06 03:44:28;;;;;;;4.72;0.73;;;;;;;10.59;100.00;92295.44;2106739;28;20052;-81
2023/08/06 03:45:29;;;;;;;1.17;0.50;;;;;;;10.79;100.00;92289.00;2106724;28;20024;-81
2023/08/06 03:46:33;;;;;;;2.72;0.50;;;;;;;10.82;100.00;92291.56;2097606;28;20508;-80
2023/08/06 03:47:34;;;;;;;1.55;0.70;;;;;;;10.90;100.00;92288.63;2090423;28;20028;-81
2023/08/06 03:48:35;;;;;;;2.05;0.70;;;;;;;10.67;100.00;92293.25;2102806;28;20548;-81
2023/08/06 03:49:36;;;;;;;2.30;0.60;;;;;;;10.76;100.00;92287.22;2089932;28;20021;-80
2023/08/06 03:50:38;;;;;;;7.70;1.00;;;;;;;10.58;100.00;92277.91;2106191;28;20035;-81
2023/08/06 03:51:39;;;;;;;2.42;0.50;;;;;;;10.54;100.00;92277.28;2105936;28;22775;-81
2023/08/06 03:52:40;;;;;;;4.57;0.60;;;;;;;10.56;100.00;92288.28;2106750;28;20031;-81
2023/08/06 03:53:41;;;;;;;4.00;0.60;;;;;;;10.56;100.00;92274.16;2106078;28;20569;-81
2023/08/06 03:54:43;;;;;;;3.53;0.68;;;;;;;10.45;100.00;92289.84;2106607;28;20024;-81
2023/08/06 03:55:44;;;;;;;6.40;0.88;;;;;;;10.35;100.00;92272.97;2114606;28;20027;-81
2023/08/06 03:56:45;;;;;;;3.38;0.77;;;;;;;10.43;100.00;92276.91;2114381;28;20034;-81
2023/08/06 03:57:46;;;;;;;2.88;0.90;;;;;;;10.47;100.00;92263.44;2106561;28;20559;-82
2023/08/06 03:58:47;;;;;;;8.25;0.88;;;;;;;10.44;100.00;92269.63;2097619;28;20024;-81
2023/08/06 03:59:48;;;;;;;4.90;0.80;;;;;;;10.42;100.00;92274.69;2095426;28;20059;-80
2023/08/06 04:00:58;;;;;;;2.28;0.57;;;;;;;10.34;100.00;92272.25;2097485;28;20103;-81
2023/08/06 04:01:58;;;;;;;3.42;0.77;;;;;;;10.30;100.00;92274.28;2100148;28;22750;-81
2023/08/06 04:03:00;;;;;;;2.38;0.80;;;;;;;10.38;100.00;92271.38;2097901;28;20032;-81
2023/08/06 04:04:01;;;;;;;8.13;0.98;;;;;;;10.26;100.00;92272.91;2089442;28;20021;-80
2023/08/06 04:05:02;;;;;;;3.65;1.00;;;;;;;10.23;100.00;92266.50;2097444;28;20036;-80
2023/08/06 04:06:03;;;;;;;1.05;0.50;;;;;;;10.58;100.00;92280.59;2114121;28;20033;-80
2023/08/06 04:07:05;;;;;;;3.47;0.57;;;;;;;10.38;100.00;92272.13;2114135;28;20084;-80
2023/08/06 04:08:07;;;;;;;2.97;0.93;;;;;;;10.34;100.00;92271.50;2105801;28;20031;-81
2023/08/06 04:09:08;;;;;;;4.72;0.95;;;;;;;10.28;100.00;92267.91;2114241;28;20080;-81
2023/08/06 04:10:09;;;;;;;3.47;0.75;;;;;;;10.30;100.00;92265.53;2097905;28;20024;-81
2023/08/06 04:11:10;;;;;;;2.75;0.68;;;;;;;10.20;100.00;92271.97;2105242;28;20032;-81
2023/08/06 04:12:11;;;;;;;4.80;0.70;;;;;;;10.25;100.00;92272.19;2105931;28;20114;-81
2023/08/06 04:13:13;;;;;;;5.47;1.00;;;;;;;10.28;100.00;92271.31;2089912;28;20178;-81
2023/08/06 04:14:14;;;;;;;2.67;0.75;;;;;;;10.23;100.00;92266.50;2097709;28;20073;-81
2023/08/06 04:15:15;;;;;;;2.40;0.45;;;;;;;10.21;100.00;92270.78;2111692;28;20115;-81
2023/08/06 04:16:16;;;;;;;2.78;0.77;;;;;;;10.36;100.00;92263.81;2114256;28;20487;-81
2023/08/06 04:17:20;;;;;;;2.88;0.80;;;;;;;10.19;100.00;92265.88;2114283;28;20051;-81
2023/08/06 04:18:20;;;;;;;2.40;0.60;;;;;;;10.05;100.00;92266.34;2098307;28;20035;-81
2023/08/06 04:19:22;;;;;;;2.15;0.80;;;;;;;9.92;100.00;92260.28;2103320;28;20081;-81
2023/08/06 04:20:23;;;;;;;6.28;0.95;;;;;;;10.03;100.00;92266.78;2099520;28;20453;-81
2023/08/06 04:21:24;;;;;;;1.95;0.70;;;;;;;10.09;100.00;92258.97;2097183;28;20020;-81
2023/08/06 04:22:25;;;;;;;2.65;0.60;;;;;;;10.12;100.00;92273.38;2097938;28;20021;-80
2023/08/06 04:23:26;;;;;;;3.13;0.60;;;;;;;10.02;100.00;92270.63;2113533;28;20388;-81
2023/08/06 04:24:27;;;;;;;3.50;0.63;;;;;;;10.10;100.00;92268.47;2114097;28;20019;-81
2023/08/06 04:25:28;;;;;;;3.40;0.65;;;;;;;10.12;100.00;92274.13;2114753;27;20035;-81
2023/08/06 04:26:30;;;;;;;4.15;0.80;;;;;;;10.12;100.00;92270.72;2114302;28;20031;-81
2023/08/06 04:27:32;;;;;;;2.85;0.75;;;;;;;10.17;100.00;92281.56;2106053;28;20031;-81
2023/08/06 04:28:33;;;;;;;1.63;0.70;;;;;;;10.28;100.00;92271.31;2106262;28;20022;-81
2023/08/06 04:29:34;;;;;;;5.13;0.73;;;;;;;10.20;100.00;92274.63;2114175;28;20015;-82
2023/08/06 04:30:37;;;;;;;4.30;0.80;;;;;;;10.25;100.00;92269.50;2114667;28;20050;-81
2023/08/06 04:31:37;;;;;;;3.95;0.70;;;;;;;10.25;100.00;92272.19;2102989;28;20455;-81
2023/08/06 04:32:39;;;;;;;5.05;0.70;;;;;;;10.17;100.00;92262.88;2089593;28;20020;-81
2023/08/06 04:33:40;;;;;;;4.20;0.80;;;;;;;10.21;100.00;92265.44;2096921;28;20029;-81
2023/08/06 04:34:49;;;;;;;5.15;0.73;;;;;;;10.23;100.00;92268.44;2098061;28;20054;-81
2023/08/06 04:35:56;;;;;;;3.72;0.80;;;;;;;10.20;100.00;92269.28;2098896;28;20032;-81
2023/08/06 04:36:58;;;;;;;2.10;0.63;;;;;;;10.22;100.00;92269.59;2106420;28;20032;-82
2023/08/06 04:37:59;;;;;;;1.45;0.65;;;;;;;10.17;100.00;92267.47;2106162;28;20028;-82
2023/08/06 04:39:00;;;;;;;5.00;0.82;;;;;;;10.18;100.00;92269.72;2097227;28;20095;-81
2023/08/06 04:40:01;;;;;;;2.15;0.68;;;;;;;10.12;100.00;92271.44;2097410;28;20454;-82
2023/08/06 04:41:05;;;;;;;3.08;0.70;;;;;;;10.09;100.00;92269.63;2092846;28;20030;-82
2023/08/06 04:42:06;;;;;;;1.98;0.70;;;;;;;10.15;100.00;92267.19;2098215;28;20365;-81
2023/08/06 04:43:07;;;;;;;2.95;0.85;;;;;;;10.11;100.00;92279.91;2106337;28;20035;-81
2023/08/06 04:44:08;;;;;;;3.78;0.63;;;;;;;10.21;100.00;92276.88;2105519;28;20027;-81
2023/08/06 04:45:10;;;;;;;2.83;0.70;;;;;;;10.30;100.00;92273.53;2098308;28;20094;-82
2023/08/06 04:46:11;;;;;;;3.63;0.85;;;;;;;10.30;100.00;92278.88;2097303;28;20074;-81
2023/08/06 04:47:13;;;;;;;2.42;0.70;;;;;;;10.40;100.00;92277.75;2097656;28;20043;-81
2023/08/06 04:48:14;;;;;;;4.05;0.70;;;;;;;10.33;100.00;92280.69;2106190;28;20467;-81
2023/08/06 04:49:15;;;;;;;3.00;0.70;;;;;;;10.36;100.00;92277.16;2111986;28;20011;-81
2023/08/06 04:50:16;;;;;;;1.88;0.80;;;;;;;10.44;100.00;92274.97;2102128;28;20092;-81